sensor_id;sensor_type;location;lat;lon;timestamp;pressure;altitude;pressure_sealevel;temperature;humidity
62057;BME280;48016;50.284;18.860;2024-03-17T00:00:38;98353.73;;;6.58;84.62
62057;BME280;48016;50.284;18.860;2024-03-17T00:03:29;98352.04;;;6.52;84.48
62057;BME280;48016;50.284;18.860;2024-03-17T00:06:00;98352.19;;;6.48;84.43
62057;BME280;48016;50.284;18.860;2024-03-17T00:08:27;98349.77;;;6.42;84.56
62057;BME280;48016;50.284;18.860;2024-03-17T00:10:54;98351.23;;;6.39;84.41
62057;BME280;48016;50.284;18.860;2024-03-17T00:13:23;98347.80;;;6.35;84.45
62057;BME280;48016;50.284;18.860;2024-03-17T00:15:50;98356.35;;;6.35;84.55
62057;BME280;48016;50.284;18.860;2024-03-17T00:18:17;98356.70;;;6.30;84.67
62057;BME280;48016;50.284;18.860;2024-03-17T00:20:44;98360.55;;;6.26;84.70
62057;BME280;48016;50.284;18.860;2024-03-17T00:23:11;98365.40;;;6.21;84.71
62057;BME280;48016;50.284;18.860;2024-03-17T00:25:38;98361.94;;;6.17;84.97
62057;BME280;48016;50.284;18.860;2024-03-17T00:28:06;98363.56;;;6.13;85.13
62057;BME280;48016;50.284;18.860;2024-03-17T00:30:32;98374.84;;;6.09;85.17
62057;BME280;48016;50.284;18.860;2024-03-17T00:32:59;98379.56;;;6.04;85.33
62057;BME280;48016;50.284;18.860;2024-03-17T00:35:26;98379.65;;;6.00;85.33
62057;BME280;48016;50.284;18.860;2024-03-17T00:37:52;98382.20;;;5.96;85.37
62057;BME280;48016;50.284;18.860;2024-03-17T00:40:20;98383.96;;;5.92;85.50
62057;BME280;48016;50.284;18.860;2024-03-17T00:42:47;98387.85;;;5.91;85.64
62057;BME280;48016;50.284;18.860;2024-03-17T00:45:14;98392.61;;;5.93;85.52
62057;BME280;48016;50.284;18.860;2024-03-17T00:47:41;98400.89;;;5.95;85.66
62057;BME280;48016;50.284;18.860;2024-03-17T00:50:07;98405.13;;;5.96;85.74
62057;BME280;48016;50.284;18.860;2024-03-17T00:52:35;98415.79;;;5.94;85.88
62057;BME280;48016;50.284;18.860;2024-03-17T00:55:01;98414.90;;;5.91;85.82
62057;BME280;48016;50.284;18.860;2024-03-17T00:57:28;98416.75;;;5.83;85.77
62057;BME280;48016;50.284;18.860;2024-03-17T00:59:55;98414.10;;;5.79;85.71
62057;BME280;48016;50.284;18.860;2024-03-17T01:02:22;98414.77;;;5.78;85.50
62057;BME280;48016;50.284;18.860;2024-03-17T01:04:49;98416.94;;;5.72;85.43
62057;BME280;48016;50.284;18.860;2024-03-17T01:07:15;98420.98;;;5.67;85.33
62057;BME280;48016;50.284;18.860;2024-03-17T01:09:41;98421.69;;;5.62;85.26
62057;BME280;48016;50.284;18.860;2024-03-17T01:12:08;98426.38;;;5.57;85.18
62057;BME280;48016;50.284;18.860;2024-03-17T01:14:35;98429.63;;;5.54;85.14
62057;BME280;48016;50.284;18.860;2024-03-17T01:17:02;98429.09;;;5.54;85.12
62057;BME280;48016;50.284;18.860;2024-03-17T01:19:32;98428.15;;;5.53;85.03
62057;BME280;48016;50.284;18.860;2024-03-17T01:22:01;98428.10;;;5.54;85.05
62057;BME280;48016;50.284;18.860;2024-03-17T01:24:28;98433.94;;;5.57;85.06
62057;BME280;48016;50.284;18.860;2024-03-17T01:26:58;98428.78;;;5.56;84.99
62057;BME280;48016;50.284;18.860;2024-03-17T01:29:26;98425.84;;;5.57;84.98
62057;BME280;48016;50.284;18.860;2024-03-17T01:31:52;98425.80;;;5.57;84.96
62057;BME280;48016;50.284;18.860;2024-03-17T01:34:19;98424.49;;;5.58;84.98
62057;BME280;48016;50.284;18.860;2024-03-17T01:36:46;98424.89;;;5.58;84.97
62057;BME280;48016;50.284;18.860;2024-03-17T01:39:13;98426.59;;;5.58;84.83
62057;BME280;48016;50.284;18.860;2024-03-17T01:41:39;98426.76;;;5.57;84.63
62057;BME280;48016;50.284;18.860;2024-03-17T01:44:06;98426.41;;;5.54;84.51
62057;BME280;48016;50.284;18.860;2024-03-17T01:46:33;98427.17;;;5.52;84.39
62057;BME280;48016;50.284;18.860;2024-03-17T01:49:00;98427.80;;;5.50;84.31
62057;BME280;48016;50.284;18.860;2024-03-17T01:51:27;98427.48;;;5.49;84.38
62057;BME280;48016;50.284;18.860;2024-03-17T01:53:55;98431.14;;;5.51;84.40
62057;BME280;48016;50.284;18.860;2024-03-17T01:56:22;98434.98;;;5.54;84.33
62057;BME280;48016;50.284;18.860;2024-03-17T01:58:49;98440.10;;;5.56;84.31
62057;BME280;48016;50.284;18.860;2024-03-17T02:01:16;98440.68;;;5.54;84.21
62057;BME280;48016;50.284;18.860;2024-03-17T02:03:43;98445.46;;;5.51;84.25
62057;BME280;48016;50.284;18.860;2024-03-17T02:06:09;98445.94;;;5.49;84.19
62057;BME280;48016;50.284;18.860;2024-03-17T02:08:49;98443.13;;;5.47;84.15
62057;BME280;48016;50.284;18.860;2024-03-17T02:11:41;98440.61;;;5.43;84.00
62057;BME280;48016;50.284;18.860;2024-03-17T02:14:08;98442.02;;;5.41;83.85
62057;BME280;48016;50.284;18.860;2024-03-17T02:16:35;98441.55;;;5.38;83.63
62057;BME280;48016;50.284;18.860;2024-03-17T02:19:01;98444.59;;;5.34;83.62
62057;BME280;48016;50.284;18.860;2024-03-17T02:21:28;98442.14;;;5.31;83.54
62057;BME280;48016;50.284;18.860;2024-03-17T02:23:55;98437.98;;;5.30;83.45
62057;BME280;48016;50.284;18.860;2024-03-17T02:26:25;98438.86;;;5.28;83.24
62057;BME280;48016;50.284;18.860;2024-03-17T02:28:51;98440.65;;;5.27;83.00
62057;BME280;48016;50.284;18.860;2024-03-17T02:31:18;98434.27;;;5.26;82.97
62057;BME280;48016;50.284;18.860;2024-03-17T02:33:45;98431.34;;;5.26;82.74
62057;BME280;48016;50.284;18.860;2024-03-17T02:36:12;98434.23;;;5.24;82.61
62057;BME280;48016;50.284;18.860;2024-03-17T02:38:39;98440.39;;;5.21;82.54
62057;BME280;48016;50.284;18.860;2024-03-17T02:41:25;98442.77;;;5.18;82.31
62057;BME280;48016;50.284;18.860;2024-03-17T02:43:51;98448.67;;;5.16;82.14
62057;BME280;48016;50.284;18.860;2024-03-17T02:46:18;98457.92;;;5.13;82.04
62057;BME280;48016;50.284;18.860;2024-03-17T02:48:49;98459.44;;;5.10;81.84
62057;BME280;48016;50.284;18.860;2024-03-17T02:51:17;98457.80;;;5.07;81.66
62057;BME280;48016;50.284;18.860;2024-03-17T02:53:45;98464.77;;;5.02;81.39
62057;BME280;48016;50.284;18.860;2024-03-17T02:56:11;98474.46;;;4.97;81.26
62057;BME280;48016;50.284;18.860;2024-03-17T02:58:39;98477.09;;;4.91;81.26
62057;BME280;48016;50.284;18.860;2024-03-17T03:01:06;98479.60;;;4.86;81.07
62057;BME280;48016;50.284;18.860;2024-03-17T03:03:33;98484.37;;;4.81;80.99
62057;BME280;48016;50.284;18.860;2024-03-17T03:06:00;98488.10;;;4.75;80.80
62057;BME280;48016;50.284;18.860;2024-03-17T03:08:30;98488.34;;;4.70;80.58
62057;BME280;48016;50.284;18.860;2024-03-17T03:10:57;98492.47;;;4.64;80.46
62057;BME280;48016;50.284;18.860;2024-03-17T03:13:23;98491.94;;;4.62;80.26
62057;BME280;48016;50.284;18.860;2024-03-17T03:15:50;98495.86;;;4.58;79.95
62057;BME280;48016;50.284;18.860;2024-03-17T03:18:17;98498.02;;;4.54;79.85
62057;BME280;48016;50.284;18.860;2024-03-17T03:20:50;98502.77;;;4.47;79.56
62057;BME280;48016;50.284;18.860;2024-03-17T03:23:16;98501.24;;;4.41;79.45
62057;BME280;48016;50.284;18.860;2024-03-17T03:25:43;98504.34;;;4.35;79.45
62057;BME280;48016;50.284;18.860;2024-03-17T03:28:09;98502.26;;;4.29;79.41
62057;BME280;48016;50.284;18.860;2024-03-17T03:30:36;98500.38;;;4.22;79.04
62057;BME280;48016;50.284;18.860;2024-03-17T03:33:03;98504.13;;;4.14;79.00
62057;BME280;48016;50.284;18.860;2024-03-17T03:35:31;98506.80;;;4.09;78.97
62057;BME280;48016;50.284;18.860;2024-03-17T03:37:58;98509.83;;;4.05;79.02
62057;BME280;48016;50.284;18.860;2024-03-17T03:40:26;98514.52;;;4.01;78.96
62057;BME280;48016;50.284;18.860;2024-03-17T03:42:53;98519.50;;;3.95;78.82
62057;BME280;48016;50.284;18.860;2024-03-17T03:45:20;98524.45;;;3.92;78.92
62057;BME280;48016;50.284;18.860;2024-03-17T03:47:49;98523.34;;;3.88;78.82
62057;BME280;48016;50.284;18.860;2024-03-17T03:50:22;98526.80;;;3.85;78.82
62057;BME280;48016;50.284;18.860;2024-03-17T03:52:49;98525.81;;;3.80;78.64
62057;BME280;48016;50.284;18.860;2024-03-17T03:55:16;98529.43;;;3.77;78.60
62057;BME280;48016;50.284;18.860;2024-03-17T03:57:43;98533.01;;;3.76;78.44
62057;BME280;48016;50.284;18.860;2024-03-17T04:00:19;98537.53;;;3.73;78.31
62057;BME280;48016;50.284;18.860;2024-03-17T04:02:51;98541.30;;;3.69;78.20
62057;BME280;48016;50.284;18.860;2024-03-17T04:05:19;98544.64;;;3.65;77.97
62057;BME280;48016;50.284;18.860;2024-03-17T04:07:47;98545.38;;;3.60;77.46
62057;BME280;48016;50.284;18.860;2024-03-17T04:10:15;98546.85;;;3.55;77.29
62057;BME280;48016;50.284;18.860;2024-03-17T04:12:42;98553.70;;;3.50;77.27
62057;BME280;48016;50.284;18.860;2024-03-17T04:15:09;98559.80;;;3.46;77.26
62057;BME280;48016;50.284;18.860;2024-03-17T04:17:37;98558.46;;;3.41;77.14
62057;BME280;48016;50.284;18.860;2024-03-17T04:20:04;98560.06;;;3.37;77.07
62057;BME280;48016;50.284;18.860;2024-03-17T04:22:34;98560.01;;;3.33;76.96
62057;BME280;48016;50.284;18.860;2024-03-17T04:25:01;98558.45;;;3.31;76.94
62057;BME280;48016;50.284;18.860;2024-03-17T04:27:27;98558.44;;;3.27;76.94
62057;BME280;48016;50.284;18.860;2024-03-17T04:29:56;98564.05;;;3.25;76.94
62057;BME280;48016;50.284;18.860;2024-03-17T04:32:23;98562.16;;;3.24;77.18
62057;BME280;48016;50.284;18.860;2024-03-17T04:34:50;98559.98;;;3.24;77.08
62057;BME280;48016;50.284;18.860;2024-03-17T04:37:16;98561.80;;;3.23;77.28
62057;BME280;48016;50.284;18.860;2024-03-17T04:39:44;98565.16;;;3.22;77.51
62057;BME280;48016;50.284;18.860;2024-03-17T04:42:11;98571.45;;;3.23;77.67
62057;BME280;48016;50.284;18.860;2024-03-17T04:44:41;98573.73;;;3.22;77.86
62057;BME280;48016;50.284;18.860;2024-03-17T04:47:07;98577.32;;;3.23;77.83
62057;BME280;48016;50.284;18.860;2024-03-17T04:49:38;98577.38;;;3.24;78.07
62057;BME280;48016;50.284;18.860;2024-03-17T04:52:05;98574.20;;;3.26;78.26
62057;BME280;48016;50.284;18.860;2024-03-17T04:54:33;98576.52;;;3.29;78.39
62057;BME280;48016;50.284;18.860;2024-03-17T04:57:00;98578.10;;;3.30;78.45
62057;BME280;48016;50.284;18.860;2024-03-17T04:59:28;98576.48;;;3.33;78.43
62057;BME280;48016;50.284;18.860;2024-03-17T05:01:55;98575.21;;;3.34;78.48
62057;BME280;48016;50.284;18.860;2024-03-17T05:04:21;98577.33;;;3.37;78.52
62057;BME280;48016;50.284;18.860;2024-03-17T05:06:48;98578.61;;;3.41;78.65
62057;BME280;48016;50.284;18.860;2024-03-17T05:09:16;98578.41;;;3.44;78.56
62057;BME280;48016;50.284;18.860;2024-03-17T05:11:43;98581.64;;;3.47;78.63
62057;BME280;48016;50.284;18.860;2024-03-17T05:14:10;98583.45;;;3.49;78.60
62057;BME280;48016;50.284;18.860;2024-03-17T05:16:37;98588.96;;;3.50;78.76
62057;BME280;48016;50.284;18.860;2024-03-17T05:19:04;98589.13;;;3.52;78.65
62057;BME280;48016;50.284;18.860;2024-03-17T05:21:31;98584.20;;;3.51;78.63
62057;BME280;48016;50.284;18.860;2024-03-17T05:23:57;98582.33;;;3.52;78.80
62057;BME280;48016;50.284;18.860;2024-03-17T05:26:24;98586.71;;;3.55;78.75
62057;BME280;48016;50.284;18.860;2024-03-17T05:28:51;98587.86;;;3.59;78.63
62057;BME280;48016;50.284;18.860;2024-03-17T05:31:17;98591.52;;;3.62;78.71
62057;BME280;48016;50.284;18.860;2024-03-17T05:33:44;98597.29;;;3.68;78.50
62057;BME280;48016;50.284;18.860;2024-03-17T05:36:11;98600.68;;;3.75;78.49
62057;BME280;48016;50.284;18.860;2024-03-17T05:38:37;98604.56;;;3.83;78.31
62057;BME280;48016;50.284;18.860;2024-03-17T05:41:05;98606.75;;;3.91;78.08
62057;BME280;48016;50.284;18.860;2024-03-17T05:43:34;98605.27;;;4.02;77.85
62057;BME280;48016;50.284;18.860;2024-03-17T05:46:06;98604.66;;;4.16;77.40
62057;BME280;48016;50.284;18.860;2024-03-17T05:48:37;98609.02;;;4.26;76.72
62057;BME280;48016;50.284;18.860;2024-03-17T05:51:05;98610.26;;;4.37;76.53
62057;BME280;48016;50.284;18.860;2024-03-17T05:53:32;98609.51;;;4.46;76.00
62057;BME280;48016;50.284;18.860;2024-03-17T05:55:59;98613.28;;;4.55;75.71
62057;BME280;48016;50.284;18.860;2024-03-17T05:58:26;98614.63;;;4.65;75.45
62057;BME280;48016;50.284;18.860;2024-03-17T06:00:52;98616.45;;;4.79;75.11
62057;BME280;48016;50.284;18.860;2024-03-17T06:03:19;98617.48;;;4.95;75.12
62057;BME280;48016;50.284;18.860;2024-03-17T06:05:46;98618.58;;;5.12;75.01
62057;BME280;48016;50.284;18.860;2024-03-17T06:08:12;98618.33;;;5.25;74.68
62057;BME280;48016;50.284;18.860;2024-03-17T06:10:44;98616.20;;;5.30;74.00
62057;BME280;48016;50.284;18.860;2024-03-17T06:13:11;98621.35;;;5.41;73.72
62057;BME280;48016;50.284;18.860;2024-03-17T06:15:43;98623.71;;;5.60;73.62
62057;BME280;48016;50.284;18.860;2024-03-17T06:18:13;98627.31;;;5.90;72.81
62057;BME280;48016;50.284;18.860;2024-03-17T06:20:41;98632.23;;;6.22;72.79
62057;BME280;48016;50.284;18.860;2024-03-17T06:23:12;98632.77;;;6.45;72.53
62057;BME280;48016;50.284;18.860;2024-03-17T06:25:43;98638.45;;;6.43;71.98
62057;BME280;48016;50.284;18.860;2024-03-17T06:28:10;98644.73;;;6.38;71.61
62057;BME280;48016;50.284;18.860;2024-03-17T06:30:54;98647.40;;;6.29;70.93
62057;BME280;48016;50.284;18.860;2024-03-17T06:33:22;98646.86;;;6.30;70.40
62057;BME280;48016;50.284;18.860;2024-03-17T06:35:48;98648.27;;;6.49;70.51
62057;BME280;48016;50.284;18.860;2024-03-17T06:38:15;98642.42;;;6.56;70.05
62057;BME280;48016;50.284;18.860;2024-03-17T06:40:48;98640.30;;;6.68;70.50
62057;BME280;48016;50.284;18.860;2024-03-17T06:43:15;98639.80;;;6.92;69.95
62057;BME280;48016;50.284;18.860;2024-03-17T06:45:42;98640.37;;;7.19;69.66
62057;BME280;48016;50.284;18.860;2024-03-17T06:48:08;98642.63;;;7.32;69.51
62057;BME280;48016;50.284;18.860;2024-03-17T06:50:37;98644.20;;;7.36;68.85
62057;BME280;48016;50.284;18.860;2024-03-17T06:53:05;98643.45;;;7.39;68.35
62057;BME280;48016;50.284;18.860;2024-03-17T06:55:32;98648.92;;;7.68;68.39
62057;BME280;48016;50.284;18.860;2024-03-17T06:57:58;98642.64;;;7.99;68.22
62057;BME280;48016;50.284;18.860;2024-03-17T07:00:25;98640.76;;;8.14;67.61
62057;BME280;48016;50.284;18.860;2024-03-17T07:02:52;98644.77;;;8.34;66.98
62057;BME280;48016;50.284;18.860;2024-03-17T07:05:19;98647.04;;;8.45;66.55
62057;BME280;48016;50.284;18.860;2024-03-17T07:07:46;98649.02;;;8.63;66.08
62057;BME280;48016;50.284;18.860;2024-03-17T07:10:12;98649.98;;;8.66;66.01
62057;BME280;48016;50.284;18.860;2024-03-17T07:12:39;98653.08;;;8.60;65.56
62057;BME280;48016;50.284;18.860;2024-03-17T07:15:06;98656.96;;;8.60;65.35
62057;BME280;48016;50.284;18.860;2024-03-17T07:17:33;98651.30;;;8.76;64.78
62057;BME280;48016;50.284;18.860;2024-03-17T07:20:00;98647.36;;;8.74;64.42
62057;BME280;48016;50.284;18.860;2024-03-17T07:22:27;98652.46;;;8.81;64.22
62057;BME280;48016;50.284;18.860;2024-03-17T07:24:55;98651.70;;;9.00;63.81
62057;BME280;48016;50.284;18.860;2024-03-17T07:27:27;98649.60;;;9.04;63.66
62057;BME280;48016;50.284;18.860;2024-03-17T07:29:53;98654.33;;;8.99;62.98
62057;BME280;48016;50.284;18.860;2024-03-17T07:32:20;98651.60;;;8.92;62.65
62057;BME280;48016;50.284;18.860;2024-03-17T07:34:48;98653.75;;;8.99;62.07
62057;BME280;48016;50.284;18.860;2024-03-17T07:37:17;98654.61;;;8.99;62.02
62057;BME280;48016;50.284;18.860;2024-03-17T07:39:43;98656.48;;;8.93;61.66
62057;BME280;48016;50.284;18.860;2024-03-17T07:42:10;98657.84;;;8.91;61.29
62057;BME280;48016;50.284;18.860;2024-03-17T07:44:37;98665.91;;;8.98;61.41
62057;BME280;48016;50.284;18.860;2024-03-17T07:47:05;98666.19;;;9.01;61.35
62057;BME280;48016;50.284;18.860;2024-03-17T07:49:31;98665.42;;;8.81;60.92
62057;BME280;48016;50.284;18.860;2024-03-17T07:51:58;98671.25;;;8.56;60.99
62057;BME280;48016;50.284;18.860;2024-03-17T07:54:25;98670.89;;;8.34;60.48
62057;BME280;48016;50.284;18.860;2024-03-17T07:56:52;98673.42;;;8.11;60.68
62057;BME280;48016;50.284;18.860;2024-03-17T07:59:19;98670.13;;;7.92;60.97
62057;BME280;48016;50.284;18.860;2024-03-17T08:01:46;98668.55;;;7.80;60.55
62057;BME280;48016;50.284;18.860;2024-03-17T08:04:12;98672.16;;;7.64;60.78
62057;BME280;48016;50.284;18.860;2024-03-17T08:06:39;98671.60;;;7.55;61.06
62057;BME280;48016;50.284;18.860;2024-03-17T08:09:10;98669.77;;;7.55;61.25
62057;BME280;48016;50.284;18.860;2024-03-17T08:11:36;98668.14;;;7.57;60.93
62057;BME280;48016;50.284;18.860;2024-03-17T08:14:03;98665.21;;;7.75;60.61
62057;BME280;48016;50.284;18.860;2024-03-17T08:16:30;98667.52;;;8.00;60.43
62057;BME280;48016;50.284;18.860;2024-03-17T08:18:57;98661.23;;;8.21;60.34
62057;BME280;48016;50.284;18.860;2024-03-17T08:21:23;98655.70;;;8.42;58.54
62057;BME280;48016;50.284;18.860;2024-03-17T08:23:50;98659.10;;;8.49;58.27
62057;BME280;48016;50.284;18.860;2024-03-17T08:26:17;98656.98;;;8.54;58.02
62057;BME280;48016;50.284;18.860;2024-03-17T08:28:45;98653.86;;;8.57;57.56
62057;BME280;48016;50.284;18.860;2024-03-17T08:31:12;98648.41;;;8.75;57.17
62057;BME280;48016;50.284;18.860;2024-03-17T08:33:41;98649.52;;;8.81;56.96
62057;BME280;48016;50.284;18.860;2024-03-17T08:36:09;98652.09;;;8.78;57.11
62057;BME280;48016;50.284;18.860;2024-03-17T08:38:35;98653.13;;;8.78;57.06
62057;BME280;48016;50.284;18.860;2024-03-17T08:41:06;98649.12;;;8.87;56.79
62057;BME280;48016;50.284;18.860;2024-03-17T08:43:34;98640.27;;;8.92;56.66
62057;BME280;48016;50.284;18.860;2024-03-17T08:46:01;98635.66;;;8.98;55.90
62057;BME280;48016;50.284;18.860;2024-03-17T08:48:30;98636.62;;;9.00;55.75
62057;BME280;48016;50.284;18.860;2024-03-17T08:50:58;98638.89;;;9.08;55.61
62057;BME280;48016;50.284;18.860;2024-03-17T08:53:25;98639.96;;;9.15;54.71
62057;BME280;48016;50.284;18.860;2024-03-17T08:55:53;98644.17;;;9.05;53.98
62057;BME280;48016;50.284;18.860;2024-03-17T08:58:19;98647.02;;;8.95;53.39
62057;BME280;48016;50.284;18.860;2024-03-17T09:00:46;98642.20;;;9.09;54.06
62057;BME280;48016;50.284;18.860;2024-03-17T09:03:13;98641.50;;;9.25;53.81
62057;BME280;48016;50.284;18.860;2024-03-17T09:05:42;98641.91;;;9.34;52.90
62057;BME280;48016;50.284;18.860;2024-03-17T09:08:23;98638.84;;;9.47;53.21
62057;BME280;48016;50.284;18.860;2024-03-17T09:10:51;98636.41;;;9.52;53.09
62057;BME280;48016;50.284;18.860;2024-03-17T09:13:23;98629.96;;;9.48;52.79
62057;BME280;48016;50.284;18.860;2024-03-17T09:15:54;98632.02;;;9.28;52.18
62057;BME280;48016;50.284;18.860;2024-03-17T09:18:23;98632.86;;;9.02;52.25
62057;BME280;48016;50.284;18.860;2024-03-17T09:23:26;98628.08;;;8.68;52.14
62057;BME280;48016;50.284;18.860;2024-03-17T09:26:01;98630.23;;;8.60;51.82
62057;BME280;48016;50.284;18.860;2024-03-17T09:28:29;98634.62;;;8.53;52.46
62057;BME280;48016;50.284;18.860;2024-03-17T09:30:57;98633.69;;;8.49;52.51
62057;BME280;48016;50.284;18.860;2024-03-17T09:33:25;98636.98;;;8.57;53.02
62057;BME280;48016;50.284;18.860;2024-03-17T09:36:05;98636.61;;;8.76;53.00
62057;BME280;48016;50.284;18.860;2024-03-17T09:38:33;98635.72;;;9.00;52.94
62057;BME280;48016;50.284;18.860;2024-03-17T09:41:00;98638.79;;;9.14;53.25
62057;BME280;48016;50.284;18.860;2024-03-17T09:43:28;98638.16;;;9.05;52.39
62057;BME280;48016;50.284;18.860;2024-03-17T09:45:55;98635.55;;;8.89;52.24
62057;BME280;48016;50.284;18.860;2024-03-17T09:48:26;98631.41;;;8.87;52.34
62057;BME280;48016;50.284;18.860;2024-03-17T09:50:57;98627.55;;;8.97;52.18
62057;BME280;48016;50.284;18.860;2024-03-17T09:53:34;98628.36;;;9.12;52.00
62057;BME280;48016;50.284;18.860;2024-03-17T09:56:20;98630.00;;;8.99;51.46
62057;BME280;48016;50.284;18.860;2024-03-17T09:58:48;98625.44;;;8.87;51.71
62057;BME280;48016;50.284;18.860;2024-03-17T10:01:15;98625.66;;;8.85;51.97
62057;BME280;48016;50.284;18.860;2024-03-17T10:03:46;98623.25;;;8.81;51.93
62057;BME280;48016;50.284;18.860;2024-03-17T10:06:16;98619.79;;;8.66;51.98
62057;BME280;48016;50.284;18.860;2024-03-17T10:08:50;98618.74;;;8.63;51.54
62057;BME280;48016;50.284;18.860;2024-03-17T10:11:19;98616.30;;;8.72;51.53
62057;BME280;48016;50.284;18.860;2024-03-17T10:13:58;98614.02;;;8.80;51.76
62057;BME280;48016;50.284;18.860;2024-03-17T10:16:26;98613.45;;;8.79;51.73
62057;BME280;48016;50.284;18.860;2024-03-17T10:19:22;98613.12;;;8.71;51.53
62057;BME280;48016;50.284;18.860;2024-03-17T10:21:49;98613.27;;;8.52;51.45
62057;BME280;48016;50.284;18.860;2024-03-17T10:26:50;98620.40;;;8.21;51.43
62057;BME280;48016;50.284;18.860;2024-03-17T10:31:52;98617.23;;;8.04;51.63
62057;BME280;48016;50.284;18.860;2024-03-17T10:34:19;98614.73;;;8.14;51.78
62057;BME280;48016;50.284;18.860;2024-03-17T10:36:46;98612.31;;;8.16;51.38
62057;BME280;48016;50.284;18.860;2024-03-17T10:39:23;98613.42;;;8.13;51.67
62057;BME280;48016;50.284;18.860;2024-03-17T10:41:57;98617.32;;;8.14;51.43
62057;BME280;48016;50.284;18.860;2024-03-17T10:44:26;98609.50;;;8.02;51.48
62057;BME280;48016;50.284;18.860;2024-03-17T10:46:56;98603.70;;;8.05;51.49
62057;BME280;48016;50.284;18.860;2024-03-17T10:49:31;98601.44;;;8.12;51.32
62057;BME280;48016;50.284;18.860;2024-03-17T10:52:03;98600.98;;;8.12;50.94
62057;BME280;48016;50.284;18.860;2024-03-17T10:54:31;98601.70;;;8.03;50.99
62057;BME280;48016;50.284;18.860;2024-03-17T10:59:47;98599.37;;;7.84;50.98
62057;BME280;48016;50.284;18.860;2024-03-17T11:02:24;98599.59;;;7.78;51.13
62057;BME280;48016;50.284;18.860;2024-03-17T11:04:53;98596.20;;;7.88;51.28
62057;BME280;48016;50.284;18.860;2024-03-17T11:07:21;98591.91;;;8.07;51.23
62057;BME280;48016;50.284;18.860;2024-03-17T11:09:50;98593.77;;;8.27;50.98
62057;BME280;48016;50.284;18.860;2024-03-17T11:12:46;98594.86;;;8.42;51.10
62057;BME280;48016;50.284;18.860;2024-03-17T11:17:47;98590.00;;;8.67;50.68
62057;BME280;48016;50.284;18.860;2024-03-17T11:20:15;98584.68;;;8.61;50.55
62057;BME280;48016;50.284;18.860;2024-03-17T11:22:45;98587.13;;;8.49;50.74
62057;BME280;48016;50.284;18.860;2024-03-17T11:27:53;98587.68;;;8.32;50.60
62057;BME280;48016;50.284;18.860;2024-03-17T11:38:58;98570.69;;;8.10;50.07
62057;BME280;48016;50.284;18.860;2024-03-17T11:47:02;98558.61;;;8.47;49.10
62057;BME280;48016;50.284;18.860;2024-03-17T11:49:30;98552.11;;;8.55;49.33
62057;BME280;48016;50.284;18.860;2024-03-17T11:51:58;98547.31;;;8.70;49.18
62057;BME280;48016;50.284;18.860;2024-03-17T11:54:27;98543.05;;;8.83;48.77
62057;BME280;48016;50.284;18.860;2024-03-17T11:56:56;98533.03;;;8.94;48.94
62057;BME280;48016;50.284;18.860;2024-03-17T11:59:26;98546.52;;;9.02;49.39
62057;BME280;48016;50.284;18.860;2024-03-17T12:01:53;98542.98;;;9.02;48.92
62057;BME280;48016;50.284;18.860;2024-03-17T12:04:21;98542.92;;;8.97;48.67
62057;BME280;48016;50.284;18.860;2024-03-17T12:06:52;98539.27;;;9.00;48.57
62057;BME280;48016;50.284;18.860;2024-03-17T12:09:24;98535.52;;;9.12;48.49
62057;BME280;48016;50.284;18.860;2024-03-17T12:11:58;98531.20;;;9.13;48.20
62057;BME280;48016;50.284;18.860;2024-03-17T12:14:25;98531.37;;;9.11;48.37
62057;BME280;48016;50.284;18.860;2024-03-17T12:17:03;98540.48;;;9.12;48.20
62057;BME280;48016;50.284;18.860;2024-03-17T12:19:30;98536.84;;;9.11;48.06
62057;BME280;48016;50.284;18.860;2024-03-17T12:21:58;98530.43;;;9.14;47.68
62057;BME280;48016;50.284;18.860;2024-03-17T12:24:30;98523.84;;;9.19;47.29
62057;BME280;48016;50.284;18.860;2024-03-17T12:26:58;98527.45;;;9.25;46.96
62057;BME280;48016;50.284;18.860;2024-03-17T12:32:00;98520.24;;;9.28;47.20
62057;BME280;48016;50.284;18.860;2024-03-17T12:34:30;98517.13;;;9.36;47.45
62057;BME280;48016;50.284;18.860;2024-03-17T12:36:58;98514.25;;;9.40;47.07
62057;BME280;48016;50.284;18.860;2024-03-17T12:39:29;98513.78;;;9.44;47.04
62057;BME280;48016;50.284;18.860;2024-03-17T12:44:37;98517.34;;;9.30;46.75
62057;BME280;48016;50.284;18.860;2024-03-17T12:47:09;98515.11;;;9.12;46.65
62057;BME280;48016;50.284;18.860;2024-03-17T12:49:48;98509.88;;;8.84;46.76
62057;BME280;48016;50.284;18.860;2024-03-17T12:52:26;98510.01;;;8.68;47.40
62057;BME280;48016;50.284;18.860;2024-03-17T12:57:47;98503.33;;;8.63;47.26
62057;BME280;48016;50.284;18.860;2024-03-17T13:00:32;98496.96;;;8.65;47.12
62057;BME280;48016;50.284;18.860;2024-03-17T13:03:04;98500.45;;;8.64;46.80
62057;BME280;48016;50.284;18.860;2024-03-17T13:05:31;98506.74;;;8.56;46.35
62057;BME280;48016;50.284;18.860;2024-03-17T13:07:58;98499.98;;;8.44;46.39
62057;BME280;48016;50.284;18.860;2024-03-17T13:10:26;98497.55;;;8.40;46.66
62057;BME280;48016;50.284;18.860;2024-03-17T13:13:04;98494.23;;;8.41;46.68
62057;BME280;48016;50.284;18.860;2024-03-17T13:15:31;98499.97;;;8.46;47.05
62057;BME280;48016;50.284;18.860;2024-03-17T13:17:58;98495.67;;;8.50;46.87
62057;BME280;48016;50.284;18.860;2024-03-17T13:20:25;98495.48;;;8.46;46.43
62057;BME280;48016;50.284;18.860;2024-03-17T13:22:52;98495.86;;;8.37;46.01
62057;BME280;48016;50.284;18.860;2024-03-17T13:25:23;98496.28;;;8.20;46.00
62057;BME280;48016;50.284;18.860;2024-03-17T13:27:53;98496.27;;;8.05;46.37
62057;BME280;48016;50.284;18.860;2024-03-17T13:30:22;98491.27;;;8.01;46.82
62057;BME280;48016;50.284;18.860;2024-03-17T13:32:50;98486.34;;;8.03;47.15
62057;BME280;48016;50.284;18.860;2024-03-17T13:35:23;98488.90;;;8.06;47.34
62057;BME280;48016;50.284;18.860;2024-03-17T13:37:50;98482.36;;;8.10;47.22
62057;BME280;48016;50.284;18.860;2024-03-17T13:40:18;98479.59;;;8.08;47.12
62057;BME280;48016;50.284;18.860;2024-03-17T13:42:46;98474.63;;;8.05;46.91
62057;BME280;48016;50.284;18.860;2024-03-17T13:45:13;98481.17;;;8.02;46.96